sensor_id;sensor_type;location;lat;lon;timestamp;pressure;altitude;pressure_sealevel;temperature;humidity
12051;BME280;6086;43.546;26.474;2022-08-02T00:02:04;98837.06;;;19.08;100.00
12051;BME280;6086;43.546;26.474;2022-08-02T00:04:32;98841.13;;;19.11;100.00
12051;BME280;6086;43.546;26.474;2022-08-02T00:06:59;98847.69;;;19.15;100.00
12051;BME280;6086;43.546;26.474;2022-08-02T00:09:26;98835.44;;;19.12;100.00
12051;BME280;6086;43.546;26.474;2022-08-02T00:11:53;98848.19;;;19.12;100.00
12051;BME280;6086;43.546;26.474;2022-08-02T00:14:20;98840.09;;;19.17;100.00
12051;BME280;6086;43.546;26.474;2022-08-02T00:16:47;98845.50;;;19.17;100.00
12051;BME280;6086;43.546;26.474;2022-08-02T00:19:14;98852.28;;;19.14;100.00
12051;BME280;6086;43.546;26.474;2022-08-02T00:21:43;98850.34;;;19.05;100.00
12051;BME280;6086;43.546;26.474;2022-08-02T00:24:26;98846.16;;;18.87;100.00
12051;BME280;6086;43.546;26.474;2022-08-02T00:26:52;98845.25;;;18.77;100.00
12051;BME280;6086;43.546;26.474;2022-08-02T00:29:19;98844.69;;;18.70;100.00
12051;BME280;6086;43.546;26.474;2022-08-02T00:31:46;98852.75;;;18.65;100.00
12051;BME280;6086;43.546;26.474;2022-08-02T00:34:13;98856.50;;;18.59;100.00
12051;BME280;6086;43.546;26.474;2022-08-02T00:36:40;98864.06;;;18.52;100.00
12051;BME280;6086;43.546;26.474;2022-08-02T00:39:09;98860.50;;;18.47;100.00
12051;BME280;6086;43.546;26.474;2022-08-02T00:41:44;98861.47;;;18.36;100.00
12051;BME280;6086;43.546;26.474;2022-08-02T00:44:12;98862.28;;;18.36;100.00
12051;BME280;6086;43.546;26.474;2022-08-02T00:46:39;98864.88;;;18.26;100.00
12051;BME280;6086;43.546;26.474;2022-08-02T00:49:06;98873.34;;;18.30;100.00
12051;BME280;6086;43.546;26.474;2022-08-02T00:51:33;98866.53;;;18.27;100.00
12051;BME280;6086;43.546;26.474;2022-08-02T00:54:00;98860.25;;;18.27;100.00
12051;BME280;6086;43.546;26.474;2022-08-02T00:56:29;98861.91;;;18.28;100.00
12051;BME280;6086;43.546;26.474;2022-08-02T00:58:56;98865.69;;;18.27;100.00
12051;BME280;6086;43.546;26.474;2022-08-02T01:01:23;98866.03;;;18.30;100.00
12051;BME280;6086;43.546;26.474;2022-08-02T01:04:03;98867.94;;;18.30;100.00
12051;BME280;6086;43.546;26.474;2022-08-02T01:06:31;98866.34;;;18.34;100.00
12051;BME280;6086;43.546;26.474;2022-08-02T01:08:59;98872.38;;;18.41;100.00
12051;BME280;6086;43.546;26.474;2022-08-02T01:11:26;98861.78;;;18.39;100.00
12051;BME280;6086;43.546;26.474;2022-08-02T01:13:56;98864.47;;;18.39;100.00
12051;BME280;6086;43.546;26.474;2022-08-02T01:16:27;98869.66;;;18.41;100.00
12051;BME280;6086;43.546;26.474;2022-08-02T01:19:00;98867.28;;;18.49;100.00
12051;BME280;6086;43.546;26.474;2022-08-02T01:21:37;98870.00;;;18.49;100.00
12051;BME280;6086;43.546;26.474;2022-08-02T01:24:29;98875.41;;;18.49;100.00
12051;BME280;6086;43.546;26.474;2022-08-02T01:27:10;98873.53;;;18.50;100.00
12051;BME280;6086;43.546;26.474;2022-08-02T01:29:50;98873.78;;;18.48;100.00
12051;BME280;6086;43.546;26.474;2022-08-02T01:32:24;98878.41;;;18.48;100.00
12051;BME280;6086;43.546;26.474;2022-08-02T01:34:55;98875.94;;;18.46;100.00
12051;BME280;6086;43.546;26.474;2022-08-02T01:37:27;98886.78;;;18.46;100.00
12051;BME280;6086;43.546;26.474;2022-08-02T01:40:01;98874.78;;;18.37;100.00
12051;BME280;6086;43.546;26.474;2022-08-02T01:42:30;98877.78;;;18.41;100.00
12051;BME280;6086;43.546;26.474;2022-08-02T01:45:00;98883.44;;;18.34;100.00
12051;BME280;6086;43.546;26.474;2022-08-02T01:47:32;98894.78;;;18.31;100.00
12051;BME280;6086;43.546;26.474;2022-08-02T01:50:03;98888.84;;;18.34;100.00
12051;BME280;6086;43.546;26.474;2022-08-02T01:52:35;98882.28;;;18.30;100.00
12051;BME280;6086;43.546;26.474;2022-08-02T01:55:06;98878.84;;;18.13;100.00
12051;BME280;6086;43.546;26.474;2022-08-02T01:57:38;98881.75;;;18.07;100.00
12051;BME280;6086;43.546;26.474;2022-08-02T02:00:08;98880.50;;;17.93;100.00
12051;BME280;6086;43.546;26.474;2022-08-02T02:02:37;98885.94;;;17.71;100.00
12051;BME280;6086;43.546;26.474;2022-08-02T02:05:07;98887.41;;;17.57;100.00
12051;BME280;6086;43.546;26.474;2022-08-02T02:07:37;98889.06;;;17.58;100.00
12051;BME280;6086;43.546;26.474;2022-08-02T02:10:05;98891.69;;;17.53;100.00
12051;BME280;6086;43.546;26.474;2022-08-02T02:12:34;98893.34;;;17.54;100.00
12051;BME280;6086;43.546;26.474;2022-08-02T02:15:03;98893.84;;;17.51;100.00
12051;BME280;6086;43.546;26.474;2022-08-02T02:17:32;98888.84;;;17.43;100.00
12051;BME280;6086;43.546;26.474;2022-08-02T02:20:01;98895.91;;;17.44;100.00
12051;BME280;6086;43.546;26.474;2022-08-02T02:22:29;98894.34;;;17.48;100.00
12051;BME280;6086;43.546;26.474;2022-08-02T02:24:56;98901.03;;;17.41;100.00
12051;BME280;6086;43.546;26.474;2022-08-02T02:27:23;98896.50;;;17.46;100.00
12051;BME280;6086;43.546;26.474;2022-08-02T02:29:51;98901.81;;;17.41;100.00
12051;BME280;6086;43.546;26.474;2022-08-02T02:32:20;98903.13;;;17.39;100.00
12051;BME280;6086;43.546;26.474;2022-08-02T02:34:50;98897.88;;;17.32;100.00
12051;BME280;6086;43.546;26.474;2022-08-02T02:37:19;98902.47;;;17.32;100.00
12051;BME280;6086;43.546;26.474;2022-08-02T02:39:49;98900.28;;;17.29;100.00
12051;BME280;6086;43.546;26.474;2022-08-02T02:42:18;98896.69;;;17.23;100.00
12051;BME280;6086;43.546;26.474;2022-08-02T02:44:47;98898.56;;;17.23;100.00
12051;BME280;6086;43.546;26.474;2022-08-02T02:47:15;98904.78;;;17.23;100.00
12051;BME280;6086;43.546;26.474;2022-08-02T02:49:45;98899.06;;;17.20;100.00
12051;BME280;6086;43.546;26.474;2022-08-02T02:52:16;98902.28;;;17.17;100.00
12051;BME280;6086;43.546;26.474;2022-08-02T02:54:45;98905.78;;;17.17;100.00
12051;BME280;6086;43.546;26.474;2022-08-02T02:57:13;98902.50;;;17.15;100.00
12051;BME280;6086;43.546;26.474;2022-08-02T02:59:41;98906.38;;;17.19;100.00
12051;BME280;6086;43.546;26.474;2022-08-02T03:02:09;98911.78;;;17.19;100.00
12051;BME280;6086;43.546;26.474;2022-08-02T03:04:39;98911.13;;;17.12;100.00
12051;BME280;6086;43.546;26.474;2022-08-02T03:07:08;98919.00;;;17.14;100.00
12051;BME280;6086;43.546;26.474;2022-08-02T03:09:36;98907.41;;;17.18;100.00
12051;BME280;6086;43.546;26.474;2022-08-02T03:12:04;98914.72;;;17.18;100.00
12051;BME280;6086;43.546;26.474;2022-08-02T03:14:33;98922.03;;;17.17;100.00
12051;BME280;6086;43.546;26.474;2022-08-02T03:17:00;98918.09;;;17.08;100.00
12051;BME280;6086;43.546;26.474;2022-08-02T03:19:27;98929.44;;;17.05;100.00
12051;BME280;6086;43.546;26.474;2022-08-02T03:21:54;98933.75;;;17.06;100.00
12051;BME280;6086;43.546;26.474;2022-08-02T03:24:22;98922.88;;;17.01;100.00
12051;BME280;6086;43.546;26.474;2022-08-02T03:26:50;98915.56;;;17.02;100.00
12051;BME280;6086;43.546;26.474;2022-08-02T03:29:17;98916.63;;;17.01;100.00
12051;BME280;6086;43.546;26.474;2022-08-02T03:31:45;98928.22;;;16.96;100.00
12051;BME280;6086;43.546;26.474;2022-08-02T03:34:12;98925.25;;;16.98;100.00
12051;BME280;6086;43.546;26.474;2022-08-02T03:36:40;98917.16;;;16.98;100.00
12051;BME280;6086;43.546;26.474;2022-08-02T03:39:08;98926.63;;;17.00;100.00
12051;BME280;6086;43.546;26.474;2022-08-02T03:41:37;98935.06;;;17.04;100.00
12051;BME280;6086;43.546;26.474;2022-08-02T03:44:06;98931.00;;;17.01;100.00
12051;BME280;6086;43.546;26.474;2022-08-02T03:46:33;98935.34;;;17.02;100.00
12051;BME280;6086;43.546;26.474;2022-08-02T03:49:04;98936.06;;;17.14;100.00
12051;BME280;6086;43.546;26.474;2022-08-02T03:51:32;98940.97;;;17.17;100.00
12051;BME280;6086;43.546;26.474;2022-08-02T03:54:00;98935.63;;;17.22;100.00
12051;BME280;6086;43.546;26.474;2022-08-02T03:56:27;98943.06;;;17.32;100.00
12051;BME280;6086;43.546;26.474;2022-08-02T03:59:06;98950.63;;;17.46;100.00
12051;BME280;6086;43.546;26.474;2022-08-02T04:01:33;98951.84;;;17.55;100.00
12051;BME280;6086;43.546;26.474;2022-08-02T04:04:00;98967.41;;;17.86;100.00
12051;BME280;6086;43.546;26.474;2022-08-02T04:06:27;98960.41;;;18.12;100.00
12051;BME280;6086;43.546;26.474;2022-08-02T04:08:54;98965.38;;;18.41;100.00
12051;BME280;6086;43.546;26.474;2022-08-02T04:11:21;98969.09;;;18.93;100.00
12051;BME280;6086;43.546;26.474;2022-08-02T04:13:57;98958.47;;;19.54;100.00
12051;BME280;6086;43.546;26.474;2022-08-02T04:16:33;98970.16;;;20.11;100.00
12051;BME280;6086;43.546;26.474;2022-08-02T04:19:04;98965.97;;;20.60;100.00
12051;BME280;6086;43.546;26.474;2022-08-02T04:21:36;98974.44;;;21.04;100.00
12051;BME280;6086;43.546;26.474;2022-08-02T04:24:05;98969.28;;;21.32;100.00
12051;BME280;6086;43.546;26.474;2022-08-02T04:26:35;98980.59;;;21.89;100.00
12051;BME280;6086;43.546;26.474;2022-08-02T04:29:03;98981.81;;;22.26;100.00
12051;BME280;6086;43.546;26.474;2022-08-02T04:31:32;98985.03;;;22.48;100.00
12051;BME280;6086;43.546;26.474;2022-08-02T04:33:59;98983.31;;;22.96;100.00
12051;BME280;6086;43.546;26.474;2022-08-02T04:36:27;98991.97;;;22.74;100.00
12051;BME280;6086;43.546;26.474;2022-08-02T04:38:54;98982.91;;;23.17;100.00
12051;BME280;6086;43.546;26.474;2022-08-02T04:41:21;98975.00;;;23.11;100.00
12051;BME280;6086;43.546;26.474;2022-08-02T04:43:48;98983.22;;;23.16;100.00
12051;BME280;6086;43.546;26.474;2022-08-02T04:46:15;98986.75;;;23.45;100.00
12051;BME280;6086;43.546;26.474;2022-08-02T04:48:43;98983.94;;;23.78;100.00
12051;BME280;6086;43.546;26.474;2022-08-02T04:51:10;98992.66;;;23.85;100.00
12051;BME280;6086;43.546;26.474;2022-08-02T04:53:37;98995.50;;;24.22;100.00
12051;BME280;6086;43.546;26.474;2022-08-02T04:56:04;98996.84;;;24.67;100.00
12051;BME280;6086;43.546;26.474;2022-08-02T04:58:31;98996.38;;;25.15;100.00
12051;BME280;6086;43.546;26.474;2022-08-02T05:00:58;99005.81;;;25.86;92.91
12051;BME280;6086;43.546;26.474;2022-08-02T05:03:25;98996.31;;;26.11;89.09
12051;BME280;6086;43.546;26.474;2022-08-02T05:05:53;98993.06;;;26.63;89.16
12051;BME280;6086;43.546;26.474;2022-08-02T05:08:20;99001.47;;;27.02;83.79
12051;BME280;6086;43.546;26.474;2022-08-02T05:10:48;98993.97;;;27.29;81.86
12051;BME280;6086;43.546;26.474;2022-08-02T05:13:15;98998.13;;;27.49;78.80
12051;BME280;6086;43.546;26.474;2022-08-02T05:15:42;99000.59;;;27.81;78.01
12051;BME280;6086;43.546;26.474;2022-08-02T05:18:09;99000.72;;;28.06;76.50
12051;BME280;6086;43.546;26.474;2022-08-02T05:20:36;99005.00;;;28.29;73.73
12051;BME280;6086;43.546;26.474;2022-08-02T05:23:05;99012.31;;;28.25;74.06
12051;BME280;6086;43.546;26.474;2022-08-02T05:25:32;99006.38;;;27.49;75.86
12051;BME280;6086;43.546;26.474;2022-08-02T05:27:58;99008.78;;;27.06;78.68
12051;BME280;6086;43.546;26.474;2022-08-02T05:30:25;99011.72;;;27.10;78.95
12051;BME280;6086;43.546;26.474;2022-08-02T05:32:52;99017.03;;;27.06;79.69
12051;BME280;6086;43.546;26.474;2022-08-02T05:35:20;99012.38;;;26.31;83.49
12051;BME280;6086;43.546;26.474;2022-08-02T05:37:50;99012.25;;;25.95;86.75
12051;BME280;6086;43.546;26.474;2022-08-02T05:40:19;99002.59;;;25.39;91.31
12051;BME280;6086;43.546;26.474;2022-08-02T05:42:46;99010.22;;;25.42;92.95
12051;BME280;6086;43.546;26.474;2022-08-02T05:45:13;99010.97;;;25.61;93.76
12051;BME280;6086;43.546;26.474;2022-08-02T05:47:40;99018.81;;;25.81;91.28
12051;BME280;6086;43.546;26.474;2022-08-02T05:50:08;99011.75;;;25.48;91.47
12051;BME280;6086;43.546;26.474;2022-08-02T05:52:50;99009.47;;;25.18;92.49
12051;BME280;6086;43.546;26.474;2022-08-02T05:55:25;99011.50;;;24.94;98.30
12051;BME280;6086;43.546;26.474;2022-08-02T05:57:59;99003.81;;;24.96;97.37
12051;BME280;6086;43.546;26.474;2022-08-02T06:00:29;99016.19;;;24.94;98.18
12051;BME280;6086;43.546;26.474;2022-08-02T06:03:21;99013.28;;;25.04;98.51
12051;BME280;6086;43.546;26.474;2022-08-02T06:05:53;99010.59;;;25.17;97.67
12051;BME280;6086;43.546;26.474;2022-08-02T06:08:27;99013.81;;;25.24;96.19
12051;BME280;6086;43.546;26.474;2022-08-02T06:11:00;99008.94;;;25.21;96.43
12051;BME280;6086;43.546;26.474;2022-08-02T06:13:28;99013.34;;;25.36;93.99
12051;BME280;6086;43.546;26.474;2022-08-02T06:15:56;99018.66;;;25.46;92.31
12051;BME280;6086;43.546;26.474;2022-08-02T06:18:25;99019.81;;;25.58;94.67
12051;BME280;6086;43.546;26.474;2022-08-02T06:20:55;99017.38;;;25.70;92.98
12051;BME280;6086;43.546;26.474;2022-08-02T06:23:23;99024.19;;;25.59;87.00
12051;BME280;6086;43.546;26.474;2022-08-02T06:25:52;99029.44;;;25.56;88.22
12051;BME280;6086;43.546;26.474;2022-08-02T06:28:21;99019.31;;;25.56;89.99
12051;BME280;6086;43.546;26.474;2022-08-02T06:30:49;99015.66;;;25.61;87.62
12051;BME280;6086;43.546;26.474;2022-08-02T06:33:17;99027.94;;;25.63;87.32
12051;BME280;6086;43.546;26.474;2022-08-02T06:35:57;99018.91;;;25.63;86.63
12051;BME280;6086;43.546;26.474;2022-08-02T06:38:32;99019.19;;;25.61;87.43
12051;BME280;6086;43.546;26.474;2022-08-02T06:41:02;99027.47;;;25.74;85.97
12051;BME280;6086;43.546;26.474;2022-08-02T06:43:39;99017.91;;;25.72;85.95
12051;BME280;6086;43.546;26.474;2022-08-02T06:46:08;99014.56;;;25.75;85.25
12051;BME280;6086;43.546;26.474;2022-08-02T06:48:35;99020.81;;;25.94;86.51
12051;BME280;6086;43.546;26.474;2022-08-02T06:51:03;99014.44;;;26.12;81.56
12051;BME280;6086;43.546;26.474;2022-08-02T06:53:30;99020.00;;;26.34;81.53
12051;BME280;6086;43.546;26.474;2022-08-02T06:55:57;99016.34;;;26.38;80.45
12051;BME280;6086;43.546;26.474;2022-08-02T06:58:24;99021.94;;;26.47;82.43
12051;BME280;6086;43.546;26.474;2022-08-02T07:00:52;99025.13;;;26.54;78.58
12051;BME280;6086;43.546;26.474;2022-08-02T07:03:19;99019.06;;;26.38;78.16
12051;BME280;6086;43.546;26.474;2022-08-02T07:05:46;99021.31;;;26.50;80.06
12051;BME280;6086;43.546;26.474;2022-08-02T07:08:14;99024.59;;;26.52;78.27
12051;BME280;6086;43.546;26.474;2022-08-02T07:10:40;99024.06;;;26.50;77.81
12051;BME280;6086;43.546;26.474;2022-08-02T07:13:07;99021.84;;;26.52;77.89
12051;BME280;6086;43.546;26.474;2022-08-02T07:15:35;99023.56;;;26.61;78.79
12051;BME280;6086;43.546;26.474;2022-08-02T07:18:05;99023.03;;;26.73;75.41
12051;BME280;6086;43.546;26.474;2022-08-02T07:20:32;99028.72;;;26.90;75.28
12051;BME280;6086;43.546;26.474;2022-08-02T07:22:59;99033.91;;;26.78;73.45
12051;BME280;6086;43.546;26.474;2022-08-02T07:25:25;99022.19;;;26.86;72.93
12051;BME280;6086;43.546;26.474;2022-08-02T07:27:53;99026.59;;;26.73;74.39
12051;BME280;6086;43.546;26.474;2022-08-02T07:30:20;99023.84;;;26.73;77.20
12051;BME280;6086;43.546;26.474;2022-08-02T07:32:47;99028.56;;;26.59;76.27
12051;BME280;6086;43.546;26.474;2022-08-02T07:35:15;99028.44;;;26.64;76.32
12051;BME280;6086;43.546;26.474;2022-08-02T07:37:42;99029.75;;;26.80;74.53
12051;BME280;6086;43.546;26.474;2022-08-02T07:40:12;99024.19;;;26.94;73.45
12051;BME280;6086;43.546;26.474;2022-08-02T07:42:39;99026.91;;;27.07;72.78
12051;BME280;6086;43.546;26.474;2022-08-02T07:45:07;99019.59;;;27.03;75.26
12051;BME280;6086;43.546;26.474;2022-08-02T07:47:35;99024.06;;;27.12;72.44
12051;BME280;6086;43.546;26.474;2022-08-02T07:50:02;99014.91;;;27.17;72.83
12051;BME280;6086;43.546;26.474;2022-08-02T07:52:31;99015.22;;;27.37;70.49
12051;BME280;6086;43.546;26.474;2022-08-02T07:54:58;99020.81;;;27.54;69.13
12051;BME280;6086;43.546;26.474;2022-08-02T07:57:26;99014.34;;;27.59;68.22
12051;BME280;6086;43.546;26.474;2022-08-02T07:59:53;99009.75;;;27.68;67.51
12051;BME280;6086;43.546;26.474;2022-08-02T08:02:20;99025.84;;;27.74;66.84
12051;BME280;6086;43.546;26.474;2022-08-02T08:04:49;99022.94;;;27.79;69.11
12051;BME280;6086;43.546;26.474;2022-08-02T08:07:16;99018.09;;;27.32;70.67
12051;BME280;6086;43.546;26.474;2022-08-02T08:09:44;99022.06;;;27.26;71.91
12051;BME280;6086;43.546;26.474;2022-08-02T08:12:12;99027.22;;;27.41;70.35
12051;BME280;6086;43.546;26.474;2022-08-02T08:14:40;99024.63;;;27.23;71.58
12051;BME280;6086;43.546;26.474;2022-08-02T08:17:07;99030.59;;;27.03;73.35
12051;BME280;6086;43.546;26.474;2022-08-02T08:19:34;99022.44;;;27.11;70.91
12051;BME280;6086;43.546;26.474;2022-08-02T08:22:01;99020.84;;;27.32;67.97
12051;BME280;6086;43.546;26.474;2022-08-02T08:24:29;99021.16;;;27.53;66.85
12051;BME280;6086;43.546;26.474;2022-08-02T08:26:57;99020.84;;;27.32;69.10
12051;BME280;6086;43.546;26.474;2022-08-02T08:29:25;99020.94;;;27.27;69.44
12051;BME280;6086;43.546;26.474;2022-08-02T08:31:52;99014.34;;;27.28;69.84
12051;BME280;6086;43.546;26.474;2022-08-02T08:34:19;99022.66;;;27.37;69.43
12051;BME280;6086;43.546;26.474;2022-08-02T08:36:48;99014.09;;;27.38;71.50
12051;BME280;6086;43.546;26.474;2022-08-02T08:39:15;99010.59;;;26.89;70.71
12051;BME280;6086;43.546;26.474;2022-08-02T08:41:42;99018.75;;;26.80;72.96
12051;BME280;6086;43.546;26.474;2022-08-02T08:44:11;99012.97;;;26.68;73.39
12051;BME280;6086;43.546;26.474;2022-08-02T08:46:41;99018.69;;;26.72;74.24
12051;BME280;6086;43.546;26.474;2022-08-02T08:49:13;99016.63;;;26.77;72.61
12051;BME280;6086;43.546;26.474;2022-08-02T08:51:42;99016.59;;;26.91;73.08
12051;BME280;6086;43.546;26.474;2022-08-02T08:54:14;99013.28;;;27.16;71.37
12051;BME280;6086;43.546;26.474;2022-08-02T08:56:42;99012.47;;;27.37;68.87
12051;BME280;6086;43.546;26.474;2022-08-02T08:59:10;99000.69;;;27.45;67.89
12051;BME280;6086;43.546;26.474;2022-08-02T09:01:38;99008.06;;;27.36;67.94
12051;BME280;6086;43.546;26.474;2022-08-02T09:04:05;99014.19;;;27.33;69.03
12051;BME280;6086;43.546;26.474;2022-08-02T09:06:32;99010.16;;;27.61;69.04
12051;BME280;6086;43.546;26.474;2022-08-02T09:08:59;99009.44;;;28.00;65.19
12051;BME280;6086;43.546;26.474;2022-08-02T09:11:26;99005.16;;;28.24;65.53
12051;BME280;6086;43.546;26.474;2022-08-02T09:13:54;99000.81;;;28.32;61.19
12051;BME280;6086;43.546;26.474;2022-08-02T09:16:30;98996.19;;;28.41;61.94
12051;BME280;6086;43.546;26.474;2022-08-02T09:18:58;99006.28;;;28.23;64.56
12051;BME280;6086;43.546;26.474;2022-08-02T09:21:34;99000.47;;;28.25;65.10
12051;BME280;6086;43.546;26.474;2022-08-02T09:24:02;98998.97;;;28.19;65.42
12051;BME280;6086;43.546;26.474;2022-08-02T09:26:40;99006.28;;;28.15;64.37
12051;BME280;6086;43.546;26.474;2022-08-02T09:29:08;98996.03;;;28.15;63.37
12051;BME280;6086;43.546;26.474;2022-08-02T09:31:36;98999.28;;;28.09;67.12
12051;BME280;6086;43.546;26.474;2022-08-02T09:34:03;98997.94;;;27.98;65.06
12051;BME280;6086;43.546;26.474;2022-08-02T09:36:37;98982.84;;;27.87;65.21
12051;BME280;6086;43.546;26.474;2022-08-02T09:39:05;98983.81;;;27.91;63.57
12051;BME280;6086;43.546;26.474;2022-08-02T09:41:34;98987.75;;;28.07;63.77
12051;BME280;6086;43.546;26.474;2022-08-02T09:44:03;98987.34;;;28.22;67.49
12051;BME280;6086;43.546;26.474;2022-08-02T09:46:31;98994.25;;;28.50;63.41
12051;BME280;6086;43.546;26.474;2022-08-02T09:49:03;98985.31;;;28.44;62.89
12051;BME280;6086;43.546;26.474;2022-08-02T09:51:31;98984.22;;;28.71;60.11
12051;BME280;6086;43.546;26.474;2022-08-02T09:54:01;98984.53;;;28.86;59.56
12051;BME280;6086;43.546;26.474;2022-08-02T09:56:40;98992.16;;;28.81;58.92
12051;BME280;6086;43.546;26.474;2022-08-02T09:59:08;98986.00;;;28.67;59.51
12051;BME280;6086;43.546;26.474;2022-08-02T10:01:36;98979.34;;;28.59;59.60
12051;BME280;6086;43.546;26.474;2022-08-02T10:04:06;98982.44;;;28.58;59.66
12051;BME280;6086;43.546;26.474;2022-08-02T10:06:36;98979.53;;;28.88;57.33
12051;BME280;6086;43.546;26.474;2022-08-02T10:09:03;98974.53;;;29.16;55.27
12051;BME280;6086;43.546;26.474;2022-08-02T10:11:30;98974.50;;;29.41;53.93
12051;BME280;6086;43.546;26.474;2022-08-02T10:13:59;98976.44;;;29.57;52.19
12051;BME280;6086;43.546;26.474;2022-08-02T10:16:28;98967.63;;;29.64;53.63
12051;BME280;6086;43.546;26.474;2022-08-02T10:18:55;98981.78;;;29.45;52.17
12051;BME280;6086;43.546;26.474;2022-08-02T10:21:28;98973.16;;;29.47;54.47
12051;BME280;6086;43.546;26.474;2022-08-02T10:24:04;98969.94;;;29.45;54.51
12051;BME280;6086;43.546;26.474;2022-08-02T10:26:32;98972.72;;;29.28;55.21
12051;BME280;6086;43.546;26.474;2022-08-02T10:28:59;98971.91;;;29.44;53.18
12051;BME280;6086;43.546;26.474;2022-08-02T10:31:33;98969.28;;;29.48;53.02
12051;BME280;6086;43.546;26.474;2022-08-02T10:34:07;98963.81;;;29.23;55.54
12051;BME280;6086;43.546;26.474;2022-08-02T10:36:39;98970.81;;;29.12;55.85
12051;BME280;6086;43.546;26.474;2022-08-02T10:39:06;98971.91;;;28.85;55.88
12051;BME280;6086;43.546;26.474;2022-08-02T10:41:44;98969.19;;;29.02;52.82
12051;BME280;6086;43.546;26.474;2022-08-02T10:44:22;98973.72;;;29.07;50.53
12051;BME280;6086;43.546;26.474;2022-08-02T10:46:50;98966.56;;;29.06;51.24
12051;BME280;6086;43.546;26.474;2022-08-02T10:49:18;98968.38;;;29.19;52.49
12051;BME280;6086;43.546;26.474;2022-08-02T10:52:03;98961.34;;;29.38;52.47
12051;BME280;6086;43.546;26.474;2022-08-02T10:54:36;98952.75;;;29.39;53.71
12051;BME280;6086;43.546;26.474;2022-08-02T10:57:18;98947.94;;;29.74;51.80
12051;BME280;6086;43.546;26.474;2022-08-02T10:59:46;98943.34;;;29.95;48.60
12051;BME280;6086;43.546;26.474;2022-08-02T11:02:13;98949.25;;;29.76;47.16
12051;BME280;6086;43.546;26.474;2022-08-02T11:05:04;98942.63;;;29.60;50.71
12051;BME280;6086;43.546;26.474;2022-08-02T11:07:35;98950.78;;;29.48;53.49
12051;BME280;6086;43.546;26.474;2022-08-02T11:10:29;98956.19;;;29.11;53.85
12051;BME280;6086;43.546;26.474;2022-08-02T11:13:02;98958.94;;;29.28;55.16
12051;BME280;6086;43.546;26.474;2022-08-02T11:15:30;98948.06;;;29.32;54.90
12051;BME280;6086;43.546;26.474;2022-08-02T11:18:13;98945.50;;;29.10;55.35
12051;BME280;6086;43.546;26.474;2022-08-02T11:20:40;98955.84;;;29.30;53.88
12051;BME280;6086;43.546;26.474;2022-08-02T11:23:37;98954.03;;;29.59;55.68
12051;BME280;6086;43.546;26.474;2022-08-02T11:29:04;98947.75;;;29.16;50.99
12051;BME280;6086;43.546;26.474;2022-08-02T11:31:37;98953.56;;;29.32;51.77
12051;BME280;6086;43.546;26.474;2022-08-02T11:34:05;98951.28;;;29.42;52.94
12051;BME280;6086;43.546;26.474;2022-08-02T11:36:32;98944.19;;;29.16;49.07
12051;BME280;6086;43.546;26.474;2022-08-02T11:39:10;98944.19;;;28.90;51.13
12051;BME280;6086;43.546;26.474;2022-08-02T11:41:38;98943.06;;;29.00;52.34
12051;BME280;6086;43.546;26.474;2022-08-02T11:44:05;98938.63;;;29.58;56.69
12051;BME280;6086;43.546;26.474;2022-08-02T11:46:33;98945.75;;;29.96;50.94
12051;BME280;6086;43.546;26.474;2022-08-02T11:49:14;98947.22;;;30.31;50.28
12051;BME280;6086;43.546;26.474;2022-08-02T11:51:55;98948.72;;;30.49;47.91
12051;BME280;6086;43.546;26.474;2022-08-02T11:54:27;98951.13;;;30.59;47.91
12051;BME280;6086;43.546;26.474;2022-08-02T11:56:54;98950.28;;;30.59;47.33
12051;BME280;6086;43.546;26.474;2022-08-02T11:59:36;98947.56;;;30.30;45.46
12051;BME280;6086;43.546;26.474;2022-08-02T12:02:04;98941.34;;;30.33;45.48
12051;BME280;6086;43.546;26.474;2022-08-02T12:04:31;98942.28;;;30.16;46.20
12051;BME280;6086;43.546;26.474;2022-08-02T12:06:59;98946.84;;;29.66;48.74
12051;BME280;6086;43.546;26.474;2022-08-02T12:09:31;98949.88;;;29.82;49.50
12051;BME280;6086;43.546;26.474;2022-08-02T12:11:59;98940.72;;;29.98;51.28
12051;BME280;6086;43.546;26.474;2022-08-02T12:14:28;98945.19;;;30.20;46.69
12051;BME280;6086;43.546;26.474;2022-08-02T12:16:55;98950.66;;;30.28;45.57
12051;BME280;6086;43.546;26.474;2022-08-02T12:19:40;98948.97;;;30.36;46.14
12051;BME280;6086;43.546;26.474;2022-08-02T12:22:15;98949.78;;;30.36;46.57
12051;BME280;6086;43.546;26.474;2022-08-02T12:24:46;98945.69;;;30.13;47.02
12051;BME280;6086;43.546;26.474;2022-08-02T12:27:34;98949.13;;;30.39;47.69
12051;BME280;6086;43.546;26.474;2022-08-02T12:30:04;98951.75;;;30.56;45.80
12051;BME280;6086;43.546;26.474;2022-08-02T12:32:34;98949.25;;;30.72;44.47
12051;BME280;6086;43.546;26.474;2022-08-02T12:35:12;98937.94;;;30.85;45.61
12051;BME280;6086;43.546;26.474;2022-08-02T12:37:43;98941.72;;;30.81;45.61
12051;BME280;6086;43.546;26.474;2022-08-02T12:40:19;98946.81;;;30.70;46.57
12051;BME280;6086;43.546;26.474;2022-08-02T12:42:48;98937.66;;;30.29;47.52
12051;BME280;6086;43.546;26.474;2022-08-02T12:45:15;98942.56;;;30.23;48.80
12051;BME280;6086;43.546;26.474;2022-08-02T12:47:46;98947.19;;;30.11;47.97
12051;BME280;6086;43.546;26.474;2022-08-02T12:50:17;98942.69;;;30.56;47.65
12051;BME280;6086;43.546;26.474;2022-08-02T12:52:45;98942.72;;;30.76;46.89
12051;BME280;6086;43.546;26.474;2022-08-02T12:55:19;98944.09;;;31.03;47.16
12051;BME280;6086;43.546;26.474;2022-08-02T12:57:51;98943.56;;;31.09;45.38
12051;BME280;6086;43.546;26.474;2022-08-02T13:00:23;98943.94;;;30.87;45.65
12051;BME280;6086;43.546;26.474;2022-08-02T13:02:50;98954.66;;;30.68;45.70
12051;BME280;6086;43.546;26.474;2022-08-02T13:05:17;98949.63;;;30.41;46.04
12051;BME280;6086;43.546;26.474;2022-08-02T13:07:45;98952.75;;;30.31;46.82
12051;BME280;6086;43.546;26.474;2022-08-02T13:10:12;98953.13;;;30.21;47.84
12051;BME280;6086;43.546;26.474;2022-08-02T13:12:40;98952.50;;;30.16;47.68